Station: Tamworth Airport  

  Atmospheric Gas Attenuation - ITU Rec 676-11   ----------------- dB/100km -----------------
Date Time Temp RH % AH g/m3 Dew Point Wind Direction Speed kph Gust kph Barometer mB Rainfall Since 9am 24GHz 47GHz 76GHz 122GHz 134GHz 241GHz
08/05 12:30 15 41 5.26 1.9 17 24 1021.6 0 12.5 20.8 27.1 70.5 56.6 191.8
08/05 12:20 14.6 43 5.38 2.2 17 20 1021.8 0 12.7 21.1 27.7 72.0 58.3 197.7
08/05 12:10 14 43 5.19 1.6 19 22 1022 0 12.3 21.0 27.2 70.8 56.5 191.4
08/05 12:00 14 44 5.31 2 15 24 1022.2 0 12.6 21.1 27.7 71.9 57.9 196.3
08/05 11:50 14 46 5.55 2.6 13 15 1022.3 0 13.1 21.5 28.5 74.2 60.7 206.2
08/05 11:40 12.8 46 5.15 1.5 9 13 1022.4 0 12.3 21.2 27.5 71.5 56.9 192.7
08/05 11:30 12.9 46 5.18 1.6 15 20 1022.5 0 12.4 21.2 27.6 71.7 57.2 193.7
08/05 11:20 13.1 47 5.36 2.1 11 13 1022.8 0 12.7 21.4 28.2 73.2 59.2 200.7
08/05 11:10 12 46 4.9 0.8 6 7 1023 0 11.8 21.0 26.9 69.8 54.5 184.3
08/05 11:00 12.4 47 5.14 1.4 9 19 1023 0 12.3 21.3 27.6 71.8 57.1 193.3
08/05 10:50 11.7 48 5.02 1.1 11 13 1023.4 0 12.1 21.3 27.5 71.3 56.2 190.0
08/05 10:40 11.7 49 5.13 1.4 6 9 1023.5 0 12.3 21.5 27.9 72.4 57.5 194.6
08/05 10:30 11.4 47 4.83 0.5 11 17 1023.6 0 11.7 21.1 26.9 69.7 54.1 182.8
08/05 10:20 11.4 50 5.13 1.4 9 13 1023.8 0 12.3 21.5 28.0 72.6 57.7 195.4
08/05 10:10 10.7 51 5.01 1 11 13 1023.9 0 12.1 21.5 27.8 72.1 56.8 192.0
08/05 10:00 10.9 52 5.17 1.4 7 15 1024 0 12.4 21.7 28.3 73.5 58.6 198.3
08/05 09:50 10.8 52 5.14 1.4 7 9 1024 0 12.3 21.7 28.2 73.3 58.3 197.3
08/05 09:40 10.1 54 5.11 1.2 11 13 1024 0 12.3 21.8 28.3 73.6 58.4 197.7
08/05 09:30 9.7 58 5.35 1.8 9 15 1023.8 0 12.8 22.3 29.4 76.4 61.7 209.1
08/05 09:20 9.3 60 5.39 1.9 9 11 1023.9 0 12.9 22.4 29.7 77.2 62.5 211.9
08/05 09:10 9.2 61 5.45 2.1 7 9 1023.9 0 13.1 22.6 29.9 77.9 63.3 214.8
08/05 09:00 8.3 61 5.14 1.2 7 11 1024 0 12.4 22.3 29.1 75.6 60.2 203.5
08/05 08:50 8.1 62 5.16 1.3 7 11 1024.1 0 12.5 22.4 29.2 76.0 60.6 204.9
08/05 08:40 7.9 65 5.34 1.7 7 9 1024.1 0 12.9 22.7 30.0 78.1 63.0 213.4
08/05 08:30 7.8 65 5.31 1.6 6 7 1024.1 0 12.8 22.7 29.9 77.8 62.7 212.4
08/05 08:20 6.9 65 5.01 0.8 6 7 1024.1 0 12.2 22.5 29.1 75.6 59.6 201.3
08/05 08:10 6.8 66 5.05 0.9 6 7 1024.1 0 12.3 22.5 29.3 76.1 60.2 203.4
08/05 08:00 6.6 67 5.06 0.9 0 2 1024 0 12.3 22.6 29.4 76.4 60.5 204.3
08/05 07:50 6.2 70 5.15 1.1 0 0 1024 0 12.5 22.8 29.9 77.8 61.9 209.4
08/05 07:40 5.1 76 5.2 1.2 0 0 1023.8 0 12.7 23.2 30.5 79.4 63.4 214.6
08/05 07:30 3.4 79 4.83 0.1 2 7 1023.7 0 11.9 23.0 29.7 77.1 59.9 202.0
08/05 07:20 2.5 85 4.89 0.2 0 0 1023.7 0 12.1 23.4 30.2 78.6 61.4 207.1
08/05 07:10 1.8 86 4.72 -0.3 6 6 1023.6 0 11.7 23.3 29.8 77.5 59.7 200.9
08/05 07:00 1.2 86 4.53 -0.9 6 6 1023.5 0 11.4 23.1 29.3 76.0 57.6 193.5
08/05 06:50 0.6 80 4.05 -2.4 6 6 1023.3 0 10.3 22.5 27.5 71.4 51.6 172.4
08/05 06:40 1.7 81 4.42 -1.2 7 7 1023.2 0 11.1 22.8 28.6 74.3 55.7 187.1
08/05 06:30 1.5 82 4.41 -1.2 6 7 1023.1 0 11.1 22.8 28.7 74.4 55.7 187.1
08/05 06:20 1.9 80 4.42 -1.2 6 6 1023.1 0 11.1 22.7 28.6 74.1 55.6 186.6
08/05 06:10 1.9 80 4.42 -1.2 0 0 1023 0 11.1 22.7 28.5 74.1 55.6 186.6
08/05 06:00 2 79 4.39 -1.2 6 7 1022.9 0 11.0 22.7 28.4 73.7 55.1 184.9
08/05 05:50 2.1 77 4.31 -1.5 6 7 1023 0 10.9 22.5 28.0 72.8 54.0 181.0
08/05 05:40 2.4 77 4.4 -1.2 7 7 1023 0 11.0 22.6 28.3 73.4 55.0 184.5
08/05 05:30 2.4 79 4.52 -0.9 7 9 1022.8 0 11.3 22.8 28.8 74.7 56.5 190.0
08/05 05:20 1.5 80 4.3 -1.6 6 7 1022.9 0 10.8 22.6 28.2 73.2 54.3 181.9
08/05 05:10 2.2 79 4.45 -1.1 6 6 1023 0 11.1 22.7 28.6 74.2 55.8 187.3
08/05 05:00 2.3 78 4.43 -1.1 6 7 1022.8 0 11.1 22.6 28.4 73.8 55.4 186.1
08/05 04:50 2.5 78 4.49 -0.9 7 7 1022.8 0 11.2 22.7 28.6 74.3 56.1 188.4
08/05 04:40 1.9 79 4.36 -1.3 6 7 1022.8 0 11.0 22.6 28.3 73.5 54.8 183.8
08/05 04:30 2 81 4.51 -0.9 6 7 1022.7 0 11.3 22.8 28.9 75.0 56.7 190.5
08/05 04:20 1.5 82 4.41 -1.2 7 7 1022.6 0 11.1 22.8 28.6 74.4 55.7 187.0
08/05 04:10 1.5 81 4.36 -1.4 7 9 1022.5 0 11.0 22.7 28.4 73.8 55.1 184.7
08/05 04:00 1.8 80 4.39 -1.3 9 13 1022.6 0 11.0 22.7 28.4 73.9 55.2 185.4
08/05 03:50 2.2 78 4.4 -1.2 7 7 1022.6 0 11.0 22.6 28.3 73.6 55.1 184.9
08/05 03:40 2.1 79 4.42 -1.2 9 9 1022.6 0 11.1 22.7 28.5 73.9 55.4 186.0
08/05 03:30 1.6 79 4.28 -1.6 9 11 1022.6 0 10.8 22.6 28.1 72.9 53.9 180.7
08/05 03:20 2.2 78 4.4 -1.2 9 9 1022.6 0 11.0 22.6 28.3 73.6 55.1 184.9
08/05 03:10 2.1 78 4.37 -1.3 9 9 1022.5 0 11.0 22.6 28.3 73.4 54.8 183.7
08/05 03:00 2 79 4.39 -1.2 6 7 1022.6 0 11.0 22.6 28.4 73.7 55.1 184.9
08/05 02:50 1.6 80 4.33 -1.5 6 7 1022.5 0 10.9 22.6 28.3 73.4 54.6 183.0
08/05 02:40 1.4 76 4.06 -2.4 7 9 1022.5 0 10.3 22.3 27.3 70.7 51.2 171.0
08/05 02:30 2.3 74 4.2 -1.8 9 11 1022.5 0 10.6 22.3 27.5 71.4 52.4 175.5
08/05 02:20 2.2 76 4.29 -1.6 6 7 1022.5 0 10.8 22.4 27.9 72.4 53.7 179.8
08/05 02:10 2.2 78 4.4 -1.2 6 7 1022.5 0 11.0 22.6 28.3 73.6 55.1 184.9
08/05 02:00 1.9 77 4.25 -1.7 7 11 1022.4 0 10.7 22.4 27.9 72.3 53.3 178.6
08/05 01:50 1.2 76 4 -2.5 7 9 1022.4 0 10.2 22.2 27.1 70.3 50.5 168.7
08/05 01:40 2.1 75 4.2 -1.9 11 11 1022.4 0 10.6 22.3 27.6 71.6 52.5 175.9
08/05 01:30 3 68 4.05 -2.3 6 15 1022.3 0 10.3 21.9 26.7 69.2 50.0 167.2
08/05 01:20 4.1 65 4.16 -1.9 0 0 1022.4 0 10.5 21.8 26.8 69.4 50.7 169.8
08/05 01:10 3.7 69 4.3 -1.4 0 0 1022.3 0 10.8 22.1 27.4 71.1 52.8 176.9
08/05 01:00 3.9 68 4.3 -1.5 6 9 1022.2 0 10.8 22.0 27.4 71.0 52.6 176.4
08/05 00:50 3.9 64 4.05 -2.3 7 7 1022.3 0 10.2 21.6 26.4 68.4 49.4 165.3
08/05 00:40 4.8 59 3.96 -2.5 7 7 1022.1 0 10.0 21.3 25.8 66.7 47.8 159.5
08/05 00:20 5.9 57 4.11 -2 0 0 1022.2 0 10.3 21.3 26.0 67.3 48.9 163.8
08/05 00:10 5.7 59 4.2 -1.7 0 0 1022.2 0 10.5 21.4 26.4 68.4 50.2 168.1
08/05 00:00 4.8 62 4.16 -1.8 2 7 1022.3 0 10.4 21.6 26.5 68.7 50.3 168.3
07/05 23:50 5.6 58 4.1 -2 2 4 1022.2 0 10.3 21.3 26.0 67.4 49.0 164.0
07/05 23:40 5.8 57 4.09 -2 4 6 1022.4 0 10.3 21.3 25.9 67.2 48.8 163.2
07/05 23:30 5 61 4.15 -1.9 7 9 1022.4 0 10.4 21.5 26.4 68.5 50.0 167.4
07/05 23:20 4.4 65 4.25 -1.6 9 9 1022.3 0 10.6 21.8 27.0 70.0 51.7 173.1
07/05 23:10 4.8 62 4.16 -1.8 0 2 1022.5 0 10.4 21.6 26.5 68.8 50.3 168.3
07/05 23:00 4.7 60 4 -2.4 9 11 1022.3 0 10.1 21.4 26.0 67.2 48.3 161.5
07/05 22:50 5 59 4.01 -2.3 9 9 1022.5 0 10.1 21.3 25.9 67.1 48.3 161.3
07/05 22:40 5 59 4.01 -2.3 15 15 1022.5 0 10.1 21.3 25.9 67.1 48.3 161.3
07/05 22:30 4.7 59 3.93 -2.6 6 11 1022.5 0 10.0 21.3 25.7 66.5 47.5 158.4
07/05 22:20 5.1 57 3.9 -2.7 9 11 1022.6 0 9.9 21.1 25.5 65.9 46.9 156.4
07/05 22:10 5.5 57 4.01 -2.3 13 13 1022.5 0 10.1 21.2 25.7 66.7 48.0 160.3
07/05 22:00 6.4 52 3.88 -2.7 9 13 1022.5 0 9.8 20.8 25.0 64.6 45.9 153.0
07/05 21:50 6.4 51 3.8 -3 7 7 1022.6 0 9.6 20.7 24.7 63.9 44.9 149.6
07/05 21:40 5.9 54 3.9 -2.7 6 7 1022.5 0 9.9 21.0 25.2 65.2 46.4 154.8
07/05 21:30 6.5 50 3.75 -3.2 6 9 1022.5 0 9.5 20.6 24.5 63.3 44.2 147.3
07/05 21:20 6.6 51 3.85 -2.8 0 0 1022.4 0 9.7 20.7 24.8 64.2 45.4 151.3
07/05 21:10 6.3 54 4 -2.3 0 0 1022.5 0 10.1 21.0 25.5 65.9 47.4 158.3
07/05 21:00 7 50 3.88 -2.7 9 15 1022.3 0 9.8 20.7 24.8 64.1 45.5 151.8
07/05 20:50 7.3 49 3.87 -2.7 15 17 1022.2 0 9.8 20.6 24.7 63.8 45.2 150.8
07/05 20:40 7.8 47 3.84 -2.8 20 24 1022.3 0 9.7 20.4 24.4 63.1 44.6 148.7
07/05 20:30 7.7 47 3.81 -2.9 17 24 1022.2 0 9.6 20.4 24.3 62.9 44.3 147.6
07/05 20:20 7.2 48 3.77 -3.1 17 17 1022.1 0 9.5 20.5 24.3 62.9 44.1 146.8
07/05 20:10 7.5 46 3.68 -3.4 0 0 1022.1 0 9.3 20.3 23.9 61.8 42.8 142.5
07/05 20:00 7.4 46 3.66 -3.4 2 9 1022 0 9.3 20.2 23.9 61.7 42.6 141.8
07/05 19:50 7.8 45 3.67 -3.4 9 9 1021.9 0 9.3 20.2 23.8 61.5 42.5 141.6

Last Refresh: 08-May-2026 12:10:11

Bureau of Meteorology